sensor_id;sensor_type;location;lat;lon;timestamp;pressure;altitude;pressure_sealevel;temperature;humidity
55916;BME280;41826;53.246;-6.670;2023-02-15T00:01:46;101019.66;;;8.56;100.00
55916;BME280;41826;53.246;-6.670;2023-02-15T00:04:16;101020.38;;;8.58;100.00
55916;BME280;41826;53.246;-6.670;2023-02-15T00:06:42;101026.78;;;8.54;100.00
55916;BME280;41826;53.246;-6.670;2023-02-15T00:09:09;101039.63;;;8.57;100.00
55916;BME280;41826;53.246;-6.670;2023-02-15T00:11:35;101046.66;;;8.57;100.00
55916;BME280;41826;53.246;-6.670;2023-02-15T00:14:34;101052.75;;;8.46;100.00
55916;BME280;41826;53.246;-6.670;2023-02-15T00:16:59;101041.31;;;8.47;100.00
55916;BME280;41826;53.246;-6.670;2023-02-15T00:19:25;101050.34;;;8.54;100.00
55916;BME280;41826;53.246;-6.670;2023-02-15T00:21:50;101047.13;;;8.62;100.00
55916;BME280;41826;53.246;-6.670;2023-02-15T00:24:17;101054.97;;;8.51;100.00
55916;BME280;41826;53.246;-6.670;2023-02-15T00:26:44;101067.22;;;8.61;100.00
55916;BME280;41826;53.246;-6.670;2023-02-15T00:29:11;101058.31;;;8.64;100.00
55916;BME280;41826;53.246;-6.670;2023-02-15T00:31:36;101063.69;;;8.51;100.00
55916;BME280;41826;53.246;-6.670;2023-02-15T00:34:04;101085.78;;;8.58;100.00
55916;BME280;41826;53.246;-6.670;2023-02-15T00:36:29;101099.44;;;8.51;100.00
55916;BME280;41826;53.246;-6.670;2023-02-15T00:38:55;101091.97;;;8.57;100.00
55916;BME280;41826;53.246;-6.670;2023-02-15T00:41:20;101117.53;;;8.65;100.00
55916;BME280;41826;53.246;-6.670;2023-02-15T00:43:46;101121.00;;;8.54;100.00
55916;BME280;41826;53.246;-6.670;2023-02-15T00:46:11;101130.94;;;8.38;100.00
55916;BME280;41826;53.246;-6.670;2023-02-15T00:48:36;101136.56;;;8.44;100.00
55916;BME280;41826;53.246;-6.670;2023-02-15T00:51:02;101147.16;;;8.54;100.00
55916;BME280;41826;53.246;-6.670;2023-02-15T00:53:28;101161.31;;;8.52;100.00
55916;BME280;41826;53.246;-6.670;2023-02-15T00:55:53;101193.72;;;8.38;100.00
55916;BME280;41826;53.246;-6.670;2023-02-15T00:58:19;101198.19;;;8.49;100.00
55916;BME280;41826;53.246;-6.670;2023-02-15T01:00:46;101198.66;;;8.54;100.00
55916;BME280;41826;53.246;-6.670;2023-02-15T01:03:13;101215.88;;;8.45;100.00
55916;BME280;41826;53.246;-6.670;2023-02-15T01:05:39;101209.34;;;8.51;100.00
55916;BME280;41826;53.246;-6.670;2023-02-15T01:08:05;101207.56;;;8.40;100.00
55916;BME280;41826;53.246;-6.670;2023-02-15T01:10:31;101221.34;;;8.42;100.00
55916;BME280;41826;53.246;-6.670;2023-02-15T01:12:58;101224.94;;;8.41;100.00
55916;BME280;41826;53.246;-6.670;2023-02-15T01:15:24;101238.13;;;8.39;100.00
55916;BME280;41826;53.246;-6.670;2023-02-15T01:17:49;101235.16;;;8.44;100.00
55916;BME280;41826;53.246;-6.670;2023-02-15T01:20:22;101242.94;;;8.33;100.00
55916;BME280;41826;53.246;-6.670;2023-02-15T01:22:48;101256.09;;;8.44;100.00
55916;BME280;41826;53.246;-6.670;2023-02-15T01:25:19;101257.03;;;8.43;100.00
55916;BME280;41826;53.246;-6.670;2023-02-15T01:27:45;101268.91;;;8.36;100.00
55916;BME280;41826;53.246;-6.670;2023-02-15T01:30:11;101270.06;;;8.32;100.00
55916;BME280;41826;53.246;-6.670;2023-02-15T01:32:36;101283.53;;;8.38;100.00
55916;BME280;41826;53.246;-6.670;2023-02-15T01:35:02;101284.59;;;8.36;100.00
55916;BME280;41826;53.246;-6.670;2023-02-15T01:37:30;101284.59;;;8.36;100.00
55916;BME280;41826;53.246;-6.670;2023-02-15T01:39:55;101276.59;;;8.37;100.00
55916;BME280;41826;53.246;-6.670;2023-02-15T01:42:22;101268.34;;;8.43;100.00
55916;BME280;41826;53.246;-6.670;2023-02-15T01:44:52;101266.38;;;8.34;100.00
55916;BME280;41826;53.246;-6.670;2023-02-15T01:50:28;101278.56;;;8.22;100.00
55916;BME280;41826;53.246;-6.670;2023-02-15T01:53:18;101276.59;;;8.37;100.00
55916;BME280;41826;53.246;-6.670;2023-02-15T01:56:05;101285.66;;;8.33;100.00
55916;BME280;41826;53.246;-6.670;2023-02-15T01:58:35;101286.00;;;8.29;100.00
55916;BME280;41826;53.246;-6.670;2023-02-15T02:01:01;101271.72;;;8.33;100.00
55916;BME280;41826;53.246;-6.670;2023-02-15T02:03:49;101267.44;;;8.32;100.00
55916;BME280;41826;53.246;-6.670;2023-02-15T02:06:16;101268.91;;;8.36;100.00
55916;BME280;41826;53.246;-6.670;2023-02-15T02:08:42;101271.72;;;8.33;100.00
55916;BME280;41826;53.246;-6.670;2023-02-15T02:11:14;101273.75;;;8.29;100.00
55916;BME280;41826;53.246;-6.670;2023-02-15T02:13:42;101268.41;;;8.31;100.00
55916;BME280;41826;53.246;-6.670;2023-02-15T02:21:45;101257.22;;;8.29;100.00
55916;BME280;41826;53.246;-6.670;2023-02-15T02:38:27;101240.91;;;8.25;100.00
55916;BME280;41826;53.246;-6.670;2023-02-15T02:44:25;101221.44;;;8.29;100.00
55916;BME280;41826;53.246;-6.670;2023-02-15T02:46:59;101216.78;;;8.21;100.00
55916;BME280;41826;53.246;-6.670;2023-02-15T02:49:36;101207.63;;;8.27;100.00
55916;BME280;41826;53.246;-6.670;2023-02-15T02:52:46;101196.09;;;8.30;100.00
55916;BME280;41826;53.246;-6.670;2023-02-15T02:54:52;101203.84;;;8.31;100.00
55916;BME280;41826;53.246;-6.670;2023-02-15T02:57:19;101198.25;;;8.36;100.00
55916;BME280;41826;53.246;-6.670;2023-02-15T02:59:48;101198.47;;;8.33;100.00
55916;BME280;41826;53.246;-6.670;2023-02-15T03:02:22;101199.19;;;8.23;100.00
55916;BME280;41826;53.246;-6.670;2023-02-15T03:04:56;101189.78;;;8.32;100.00
55916;BME280;41826;53.246;-6.670;2023-02-15T03:07:24;101171.81;;;8.28;100.00
55916;BME280;41826;53.246;-6.670;2023-02-15T03:09:54;101153.03;;;8.22;100.00
55916;BME280;41826;53.246;-6.670;2023-02-15T03:12:24;101141.50;;;8.25;100.00
55916;BME280;41826;53.246;-6.670;2023-02-15T03:14:55;101132.13;;;8.22;100.00
55916;BME280;41826;53.246;-6.670;2023-02-15T03:17:23;101117.88;;;8.27;100.00
55916;BME280;41826;53.246;-6.670;2023-02-15T03:19:54;101107.41;;;8.27;100.00
55916;BME280;41826;53.246;-6.670;2023-02-15T03:22:25;101111.91;;;8.24;100.00
55916;BME280;41826;53.246;-6.670;2023-02-15T03:25:02;101103.63;;;8.31;100.00
55916;BME280;41826;53.246;-6.670;2023-02-15T03:27:37;101113.59;;;8.25;100.00
55916;BME280;41826;53.246;-6.670;2023-02-15T03:30:05;101105.75;;;8.25;100.00
55916;BME280;41826;53.246;-6.670;2023-02-15T03:32:33;101104.44;;;8.31;100.00
55916;BME280;41826;53.246;-6.670;2023-02-15T03:34:59;101116.69;;;8.31;100.00
55916;BME280;41826;53.246;-6.670;2023-02-15T03:42:49;101113.75;;;8.46;100.00
55916;BME280;41826;53.246;-6.670;2023-02-15T03:45:22;101119.31;;;8.42;100.00
55916;BME280;41826;53.246;-6.670;2023-02-15T03:47:52;101124.31;;;8.45;100.00
55916;BME280;41826;53.246;-6.670;2023-02-15T03:50:23;101124.44;;;8.43;100.00
55916;BME280;41826;53.246;-6.670;2023-02-15T03:53:11;101131.69;;;8.51;100.00
55916;BME280;41826;53.246;-6.670;2023-02-15T03:55:39;101118.97;;;8.46;100.00
55916;BME280;41826;53.246;-6.670;2023-02-15T03:58:04;101127.66;;;8.47;100.00
55916;BME280;41826;53.246;-6.670;2023-02-15T04:01:04;101146.06;;;8.45;100.00
55916;BME280;41826;53.246;-6.670;2023-02-15T04:03:54;101136.94;;;8.51;100.00
55916;BME280;41826;53.246;-6.670;2023-02-15T04:06:22;101127.53;;;8.49;100.00
55916;BME280;41826;53.246;-6.670;2023-02-15T04:08:47;101125.53;;;8.63;100.00
55916;BME280;41826;53.246;-6.670;2023-02-15T04:11:31;101110.38;;;8.56;100.00
55916;BME280;41826;53.246;-6.670;2023-02-15T04:13:57;101110.63;;;8.53;100.00
55916;BME280;41826;53.246;-6.670;2023-02-15T04:16:23;101098.75;;;8.60;100.00
55916;BME280;41826;53.246;-6.670;2023-02-15T04:18:49;101078.88;;;8.57;100.00
55916;BME280;41826;53.246;-6.670;2023-02-15T04:21:32;101083.88;;;8.60;100.00
55916;BME280;41826;53.246;-6.670;2023-02-15T04:24:17;101081.72;;;8.65;100.00
55916;BME280;41826;53.246;-6.670;2023-02-15T04:27:01;101080.16;;;8.74;100.00
55916;BME280;41826;53.246;-6.670;2023-02-15T04:29:28;101069.81;;;8.73;100.00
55916;BME280;41826;53.246;-6.670;2023-02-15T04:31:56;101071.97;;;8.79;100.00
55916;BME280;41826;53.246;-6.670;2023-02-15T04:34:23;101073.84;;;8.77;100.00
55916;BME280;41826;53.246;-6.670;2023-02-15T04:36:48;101068.88;;;8.74;100.00
55916;BME280;41826;53.246;-6.670;2023-02-15T04:39:16;101074.09;;;8.74;100.00
55916;BME280;41826;53.246;-6.670;2023-02-15T04:41:42;101073.59;;;8.80;100.00
55916;BME280;41826;53.246;-6.670;2023-02-15T04:44:07;101133.09;;;8.89;100.00
55916;BME280;41826;53.246;-6.670;2023-02-15T04:46:33;101156.66;;;8.55;100.00
55916;BME280;41826;53.246;-6.670;2023-02-15T04:48:58;101180.94;;;8.68;100.00
55916;BME280;41826;53.246;-6.670;2023-02-15T04:51:24;101211.03;;;8.52;100.00
55916;BME280;41826;53.246;-6.670;2023-02-15T04:53:49;101204.13;;;8.73;100.00
55916;BME280;41826;53.246;-6.670;2023-02-15T04:56:18;101225.44;;;8.80;100.00
55916;BME280;41826;53.246;-6.670;2023-02-15T04:58:43;101232.94;;;8.62;100.00
55916;BME280;41826;53.246;-6.670;2023-02-15T05:01:08;101233.31;;;8.68;100.00
55916;BME280;41826;53.246;-6.670;2023-02-15T05:03:34;101224.00;;;8.64;100.00
55916;BME280;41826;53.246;-6.670;2023-02-15T05:06:00;101219.72;;;8.75;100.00
55916;BME280;41826;53.246;-6.670;2023-02-15T05:08:25;101224.25;;;8.73;100.00
55916;BME280;41826;53.246;-6.670;2023-02-15T05:10:51;101227.22;;;8.68;100.00
55916;BME280;41826;53.246;-6.670;2023-02-15T05:13:16;101221.16;;;8.67;100.00
55916;BME280;41826;53.246;-6.670;2023-02-15T05:15:47;101222.31;;;8.52;100.00
55916;BME280;41826;53.246;-6.670;2023-02-15T05:18:12;101216.97;;;8.65;100.00
55916;BME280;41826;53.246;-6.670;2023-02-15T05:20:37;101213.66;;;8.63;100.00
55916;BME280;41826;53.246;-6.670;2023-02-15T05:23:03;101201.16;;;8.55;100.00
55916;BME280;41826;53.246;-6.670;2023-02-15T05:25:28;101201.28;;;8.54;100.00
55916;BME280;41826;53.246;-6.670;2023-02-15T05:28:12;101191.09;;;8.27;100.00
55916;BME280;41826;53.246;-6.670;2023-02-15T05:31:06;101188.88;;;8.56;100.00
55916;BME280;41826;53.246;-6.670;2023-02-15T05:33:34;101194.06;;;8.22;100.00
55916;BME280;41826;53.246;-6.670;2023-02-15T05:35:59;101202.72;;;7.76;100.00
55916;BME280;41826;53.246;-6.670;2023-02-15T05:38:25;101219.91;;;8.02;100.00
55916;BME280;41826;53.246;-6.670;2023-02-15T05:40:51;101218.00;;;7.69;100.00
55916;BME280;41826;53.246;-6.670;2023-02-15T05:43:17;101212.53;;;7.37;100.00
55916;BME280;41826;53.246;-6.670;2023-02-15T05:45:51;101219.94;;;7.54;100.00
55916;BME280;41826;53.246;-6.670;2023-02-15T05:48:17;101235.31;;;7.83;100.00
55916;BME280;41826;53.246;-6.670;2023-02-15T05:50:44;101232.97;;;7.43;100.00
55916;BME280;41826;53.246;-6.670;2023-02-15T05:53:09;101233.00;;;7.67;100.00
55916;BME280;41826;53.246;-6.670;2023-02-15T05:55:39;101250.31;;;7.68;100.00
55916;BME280;41826;53.246;-6.670;2023-02-15T05:58:06;101264.63;;;7.75;100.00
55916;BME280;41826;53.246;-6.670;2023-02-15T06:00:31;101280.06;;;7.42;100.00
55916;BME280;41826;53.246;-6.670;2023-02-15T06:02:57;101280.09;;;7.29;100.00
55916;BME280;41826;53.246;-6.670;2023-02-15T06:05:22;101295.38;;;7.35;100.00
55916;BME280;41826;53.246;-6.670;2023-02-15T06:07:48;101299.25;;;6.91;100.00
55916;BME280;41826;53.246;-6.670;2023-02-15T06:10:13;101312.75;;;6.85;100.00
55916;BME280;41826;53.246;-6.670;2023-02-15T06:12:39;101314.09;;;6.78;100.00
55916;BME280;41826;53.246;-6.670;2023-02-15T06:15:04;101317.94;;;7.23;100.00
55916;BME280;41826;53.246;-6.670;2023-02-15T06:17:30;101330.16;;;7.23;100.00
55916;BME280;41826;53.246;-6.670;2023-02-15T06:19:55;101325.25;;;7.05;100.00
55916;BME280;41826;53.246;-6.670;2023-02-15T06:22:21;101316.81;;;7.02;100.00
55916;BME280;41826;53.246;-6.670;2023-02-15T06:24:47;101325.78;;;6.98;100.00
55916;BME280;41826;53.246;-6.670;2023-02-15T06:27:13;101328.06;;;7.28;100.00
55916;BME280;41826;53.246;-6.670;2023-02-15T06:29:38;101329.00;;;7.14;100.00
55916;BME280;41826;53.246;-6.670;2023-02-15T06:32:04;101317.22;;;7.08;100.00
55916;BME280;41826;53.246;-6.670;2023-02-15T06:34:30;101311.38;;;6.92;100.00
55916;BME280;41826;53.246;-6.670;2023-02-15T06:36:55;101305.00;;;6.96;100.00
55916;BME280;41826;53.246;-6.670;2023-02-15T06:39:21;101328.81;;;7.17;100.00
55916;BME280;41826;53.246;-6.670;2023-02-15T06:41:46;101332.47;;;7.14;100.00
55916;BME280;41826;53.246;-6.670;2023-02-15T06:44:12;101331.44;;;6.79;100.00
55916;BME280;41826;53.246;-6.670;2023-02-15T06:46:37;101325.84;;;6.58;100.00
55916;BME280;41826;53.246;-6.670;2023-02-15T06:49:03;101318.66;;;6.48;100.00
55916;BME280;41826;53.246;-6.670;2023-02-15T06:51:28;101321.31;;;7.00;100.00
55916;BME280;41826;53.246;-6.670;2023-02-15T06:53:53;101315.94;;;6.50;100.00
55916;BME280;41826;53.246;-6.670;2023-02-15T06:56:19;101311.66;;;6.36;100.00
55916;BME280;41826;53.246;-6.670;2023-02-15T06:58:44;101301.00;;;6.39;100.00
55916;BME280;41826;53.246;-6.670;2023-02-15T07:01:15;101297.75;;;6.23;100.00
55916;BME280;41826;53.246;-6.670;2023-02-15T07:03:41;101288.72;;;6.41;100.00
55916;BME280;41826;53.246;-6.670;2023-02-15T07:06:06;101283.50;;;6.41;100.00
55916;BME280;41826;53.246;-6.670;2023-02-15T07:08:34;101283.25;;;6.32;100.00
55916;BME280;41826;53.246;-6.670;2023-02-15T07:11:00;101274.69;;;6.29;100.00
55916;BME280;41826;53.246;-6.670;2023-02-15T07:13:45;101258.94;;;6.18;100.00
55916;BME280;41826;53.246;-6.670;2023-02-15T07:16:11;101242.25;;;6.21;100.00
55916;BME280;41826;53.246;-6.670;2023-02-15T07:18:37;101231.31;;;6.16;100.00
55916;BME280;41826;53.246;-6.670;2023-02-15T07:21:02;101225.59;;;6.23;100.00
55916;BME280;41826;53.246;-6.670;2023-02-15T07:23:28;101229.81;;;6.12;100.00
55916;BME280;41826;53.246;-6.670;2023-02-15T07:25:57;101221.94;;;6.26;100.00
55916;BME280;41826;53.246;-6.670;2023-02-15T07:28:23;101210.84;;;6.10;100.00
55916;BME280;41826;53.246;-6.670;2023-02-15T07:30:48;101208.66;;;6.03;100.00
55916;BME280;41826;53.246;-6.670;2023-02-15T07:33:14;101200.09;;;6.01;100.00
55916;BME280;41826;53.246;-6.670;2023-02-15T07:35:49;101180.09;;;6.15;100.00
55916;BME280;41826;53.246;-6.670;2023-02-15T07:38:15;101178.22;;;6.29;100.00
55916;BME280;41826;53.246;-6.670;2023-02-15T07:40:41;101186.25;;;6.26;100.00
55916;BME280;41826;53.246;-6.670;2023-02-15T07:43:07;101195.22;;;6.22;100.00
55916;BME280;41826;53.246;-6.670;2023-02-15T07:45:32;101197.44;;;6.28;100.00
55916;BME280;41826;53.246;-6.670;2023-02-15T07:47:57;101192.81;;;6.32;100.00
55916;BME280;41826;53.246;-6.670;2023-02-15T07:50:23;101200.97;;;6.53;100.00
55916;BME280;41826;53.246;-6.670;2023-02-15T07:52:48;101207.13;;;6.65;100.00
55916;BME280;41826;53.246;-6.670;2023-02-15T07:55:13;101220.69;;;6.57;100.00
55916;BME280;41826;53.246;-6.670;2023-02-15T07:57:46;101223.19;;;6.71;100.00
55916;BME280;41826;53.246;-6.670;2023-02-15T08:00:12;101238.22;;;6.55;100.00
55916;BME280;41826;53.246;-6.670;2023-02-15T08:02:39;101240.19;;;6.51;100.00
55916;BME280;41826;53.246;-6.670;2023-02-15T08:05:05;101245.81;;;6.58;100.00
55916;BME280;41826;53.246;-6.670;2023-02-15T08:07:30;101256.69;;;6.52;100.00
55916;BME280;41826;53.246;-6.670;2023-02-15T08:09:55;101269.94;;;6.49;100.00
55916;BME280;41826;53.246;-6.670;2023-02-15T08:12:21;101262.63;;;6.67;100.00
55916;BME280;41826;53.246;-6.670;2023-02-15T08:14:46;101286.13;;;6.67;100.00
55916;BME280;41826;53.246;-6.670;2023-02-15T08:17:11;101290.38;;;6.68;100.00
55916;BME280;41826;53.246;-6.670;2023-02-15T08:19:37;101298.56;;;6.76;100.00
55916;BME280;41826;53.246;-6.670;2023-02-15T08:22:06;101309.91;;;6.75;100.00
55916;BME280;41826;53.246;-6.670;2023-02-15T08:24:34;101313.88;;;6.68;100.00
55916;BME280;41826;53.246;-6.670;2023-02-15T08:27:02;101309.88;;;6.49;100.00
55916;BME280;41826;53.246;-6.670;2023-02-15T08:29:29;101303.03;;;6.61;100.00
55916;BME280;41826;53.246;-6.670;2023-02-15T08:32:05;101309.91;;;6.75;100.00
55916;BME280;41826;53.246;-6.670;2023-02-15T08:34:36;101302.91;;;6.76;100.00
55916;BME280;41826;53.246;-6.670;2023-02-15T08:37:01;101299.47;;;6.75;100.00
55916;BME280;41826;53.246;-6.670;2023-02-15T08:39:27;101305.84;;;6.97;100.00
55916;BME280;41826;53.246;-6.670;2023-02-15T08:41:53;101318.06;;;6.83;100.00
55916;BME280;41826;53.246;-6.670;2023-02-15T08:44:19;101310.75;;;6.76;100.00
55916;BME280;41826;53.246;-6.670;2023-02-15T08:46:46;101313.69;;;6.71;100.00
55916;BME280;41826;53.246;-6.670;2023-02-15T08:49:15;101315.44;;;6.70;100.00
55916;BME280;41826;53.246;-6.670;2023-02-15T08:51:41;101315.34;;;6.85;100.00
55916;BME280;41826;53.246;-6.670;2023-02-15T08:54:10;101317.22;;;6.83;100.00
55916;BME280;41826;53.246;-6.670;2023-02-15T08:56:39;101324.81;;;6.73;100.00
55916;BME280;41826;53.246;-6.670;2023-02-15T08:59:06;101323.50;;;6.93;100.00
55916;BME280;41826;53.246;-6.670;2023-02-15T09:01:33;101322.94;;;7.26;100.00
55916;BME280;41826;53.246;-6.670;2023-02-15T09:04:02;101327.59;;;7.47;100.00
55916;BME280;41826;53.246;-6.670;2023-02-15T09:06:29;101333.59;;;7.23;100.00
55916;BME280;41826;53.246;-6.670;2023-02-15T09:08:55;101312.09;;;7.69;100.00
55916;BME280;41826;53.246;-6.670;2023-02-15T09:11:23;101311.03;;;7.72;100.00
55916;BME280;41826;53.246;-6.670;2023-02-15T09:13:58;101306.66;;;7.72;100.00
55916;BME280;41826;53.246;-6.670;2023-02-15T09:16:26;101303.88;;;7.63;100.00
55916;BME280;41826;53.246;-6.670;2023-02-15T09:18:52;101308.63;;;7.45;100.00
55916;BME280;41826;53.246;-6.670;2023-02-15T09:21:20;101311.41;;;7.42;100.00
55916;BME280;41826;53.246;-6.670;2023-02-15T09:23:48;101300.97;;;7.42;100.00
55916;BME280;41826;53.246;-6.670;2023-02-15T09:26:19;101304.03;;;7.35;100.00
55916;BME280;41826;53.246;-6.670;2023-02-15T09:28:45;101301.28;;;7.50;100.00
55916;BME280;41826;53.246;-6.670;2023-02-15T09:31:16;101304.44;;;7.42;100.00
55916;BME280;41826;53.246;-6.670;2023-02-15T09:33:43;101306.16;;;7.67;100.00
55916;BME280;41826;53.246;-6.670;2023-02-15T09:36:20;101303.75;;;7.64;100.00
55916;BME280;41826;53.246;-6.670;2023-02-15T09:38:47;101298.31;;;7.54;100.00
55916;BME280;41826;53.246;-6.670;2023-02-15T09:43:57;101295.97;;;7.75;100.00
55916;BME280;41826;53.246;-6.670;2023-02-15T09:46:31;101290.31;;;8.06;100.00
55916;BME280;41826;53.246;-6.670;2023-02-15T09:49:13;101288.91;;;7.89;100.00
55916;BME280;41826;53.246;-6.670;2023-02-15T09:54:38;101284.44;;;8.02;100.00
55916;BME280;41826;53.246;-6.670;2023-02-15T10:00:09;101290.53;;;7.78;100.00
55916;BME280;41826;53.246;-6.670;2023-02-15T10:02:54;101286.94;;;7.79;100.00
55916;BME280;41826;53.246;-6.670;2023-02-15T10:19:59;101297.34;;;8.16;100.00
55916;BME280;41826;53.246;-6.670;2023-02-15T10:22:41;101287.06;;;8.02;100.00
55916;BME280;41826;53.246;-6.670;2023-02-15T10:25:24;101296.41;;;8.17;100.00
55916;BME280;41826;53.246;-6.670;2023-02-15T10:27:54;101292.59;;;8.45;100.00
55916;BME280;41826;53.246;-6.670;2023-02-15T10:30:47;101299.44;;;8.35;100.00
55916;BME280;41826;53.246;-6.670;2023-02-15T10:35:51;101298.25;;;8.63;100.00
55916;BME280;41826;53.246;-6.670;2023-02-15T10:44:29;101284.34;;;8.39;100.00
55916;BME280;41826;53.246;-6.670;2023-02-15T10:47:25;101291.81;;;8.56;100.00
55916;BME280;41826;53.246;-6.670;2023-02-15T10:51:00;101293.59;;;8.67;100.00
55916;BME280;41826;53.246;-6.670;2023-02-15T11:01:12;101304.56;;;8.61;100.00
55916;BME280;41826;53.246;-6.670;2023-02-15T11:06:28;101290.31;;;8.76;100.00
55916;BME280;41826;53.246;-6.670;2023-02-15T11:09:02;101280.75;;;8.75;100.00
55916;BME280;41826;53.246;-6.670;2023-02-15T11:11:35;101284.44;;;8.73;100.00
55916;BME280;41826;53.246;-6.670;2023-02-15T11:14:12;101283.72;;;8.71;100.00
55916;BME280;41826;53.246;-6.670;2023-02-15T11:16:44;101284.19;;;8.64;100.00
55916;BME280;41826;53.246;-6.670;2023-02-15T11:19:24;101272.06;;;8.86;100.00
55916;BME280;41826;53.246;-6.670;2023-02-15T11:21:59;101262.69;;;8.72;100.00
55916;BME280;41826;53.246;-6.670;2023-02-15T11:24:28;101258.28;;;8.61;100.00
55916;BME280;41826;53.246;-6.670;2023-02-15T11:27:00;101253.03;;;8.73;100.00
55916;BME280;41826;53.246;-6.670;2023-02-15T11:29:37;101252.56;;;8.67;100.00
55916;BME280;41826;53.246;-6.670;2023-02-15T11:32:32;101249.72;;;8.82;100.00
55916;BME280;41826;53.246;-6.670;2023-02-15T11:40:24;101252.09;;;8.74;100.00
55916;BME280;41826;53.246;-6.670;2023-02-15T11:42:55;101259.72;;;8.99;100.00
55916;BME280;41826;53.246;-6.670;2023-02-15T11:47:49;101256.63;;;8.94;100.00
55916;BME280;41826;53.246;-6.670;2023-02-15T11:50:17;101251.94;;;9.31;100.00
55916;BME280;41826;53.246;-6.670;2023-02-15T11:52:47;101250.84;;;9.34;100.00
55916;BME280;41826;53.246;-6.670;2023-02-15T11:55:14;101240.31;;;9.24;100.00
55916;BME280;41826;53.246;-6.670;2023-02-15T11:57:49;101210.00;;;9.31;100.00
55916;BME280;41826;53.246;-6.670;2023-02-15T12:00:27;101214.41;;;9.42;100.00
55916;BME280;41826;53.246;-6.670;2023-02-15T12:02:57;101213.34;;;9.33;100.00
55916;BME280;41826;53.246;-6.670;2023-02-15T12:05:24;101193.84;;;9.26;100.00
55916;BME280;41826;53.246;-6.670;2023-02-15T12:07:55;101188.22;;;9.31;100.00
55916;BME280;41826;53.246;-6.670;2023-02-15T12:13:19;101166.53;;;9.40;100.00
55916;BME280;41826;53.246;-6.670;2023-02-15T12:15:47;101160.63;;;9.59;100.00
55916;BME280;41826;53.246;-6.670;2023-02-15T12:18:43;101150.38;;;9.56;100.00
55916;BME280;41826;53.246;-6.670;2023-02-15T12:21:14;101148.41;;;9.48;100.00
55916;BME280;41826;53.246;-6.670;2023-02-15T12:23:48;101127.50;;;9.37;100.00
55916;BME280;41826;53.246;-6.670;2023-02-15T12:26:32;101114.59;;;9.45;100.00
55916;BME280;41826;53.246;-6.670;2023-02-15T12:29:01;101110.91;;;9.37;100.00
55916;BME280;41826;53.246;-6.670;2023-02-15T12:31:47;101092.06;;;9.22;100.00
55916;BME280;41826;53.246;-6.670;2023-02-15T12:34:32;101051.00;;;9.11;100.00
55916;BME280;41826;53.246;-6.670;2023-02-15T12:37:08;101052.25;;;9.28;100.00
55916;BME280;41826;53.246;-6.670;2023-02-15T12:39:34;101049.13;;;9.34;100.00
55916;BME280;41826;53.246;-6.670;2023-02-15T12:42:00;101031.56;;;9.25;100.00
55916;BME280;41826;53.246;-6.670;2023-02-15T12:44:34;100996.00;;;9.11;100.00
55916;BME280;41826;53.246;-6.670;2023-02-15T12:49:41;100975.25;;;9.40;100.00
55916;BME280;41826;53.246;-6.670;2023-02-15T12:54:48;100922.84;;;9.40;100.00
55916;BME280;41826;53.246;-6.670;2023-02-15T12:57:18;100926.03;;;9.74;100.00
55916;BME280;41826;53.246;-6.670;2023-02-15T13:00:00;100915.13;;;9.79;100.00
55916;BME280;41826;53.246;-6.670;2023-02-15T13:02:44;100886.41;;;9.68;100.00
55916;BME280;41826;53.246;-6.670;2023-02-15T13:07:50;100863.19;;;10.13;100.00
55916;BME280;41826;53.246;-6.670;2023-02-15T13:11:04;100807.69;;;9.98;100.00
55916;BME280;41826;53.246;-6.670;2023-02-15T13:13:31;100743.75;;;9.99;100.00
55916;BME280;41826;53.246;-6.670;2023-02-15T13:16:02;100701.25;;;9.86;100.00
55916;BME280;41826;53.246;-6.670;2023-02-15T13:18:35;100682.50;;;10.01;100.00
55916;BME280;41826;53.246;-6.670;2023-02-15T13:21:21;100661.53;;;9.91;100.00
55916;BME280;41826;53.246;-6.670;2023-02-15T13:23:57;100596.13;;;9.80;100.00
55916;BME280;41826;53.246;-6.670;2023-02-15T13:26:27;100546.16;;;9.81;100.00
55916;BME280;41826;53.246;-6.670;2023-02-15T13:29:10;100550.56;;;9.90;100.00
55916;BME280;41826;53.246;-6.670;2023-02-15T13:31:39;100554.00;;;10.01;100.00
55916;BME280;41826;53.246;-6.670;2023-02-15T13:47:27;100556.47;;;10.39;100.00
55916;BME280;41826;53.246;-6.670;2023-02-15T13:55:44;100407.38;;;10.25;100.00
55916;BME280;41826;53.246;-6.670;2023-02-15T13:58:25;100363.00;;;10.14;100.00
55916;BME280;41826;53.246;-6.670;2023-02-15T14:07:10;100478.06;;;10.27;100.00
55916;BME280;41826;53.246;-6.670;2023-02-15T14:15:35;100473.69;;;10.17;100.00
55916;BME280;41826;53.246;-6.670;2023-02-15T14:23:33;100512.50;;;10.14;100.00
55916;BME280;41826;53.246;-6.670;2023-02-15T14:26:35;100522.66;;;10.27;100.00
55916;BME280;41826;53.246;-6.670;2023-02-15T14:31:56;100517.63;;;10.15;100.00
55916;BME280;41826;53.246;-6.670;2023-02-15T14:34:43;100534.41;;;10.23;100.00
55916;BME280;41826;53.246;-6.670;2023-02-15T14:37:12;100515.31;;;10.40;100.00
55916;BME280;41826;53.246;-6.670;2023-02-15T14:39:50;100548.41;;;10.13;100.00
55916;BME280;41826;53.246;-6.670;2023-02-15T14:42:51;100601.75;;;9.94;100.00
55916;BME280;41826;53.246;-6.670;2023-02-15T14:50:36;100596.09;;;9.89;100.00
55916;BME280;41826;53.246;-6.670;2023-02-15T14:55:41;100604.38;;;9.94;100.00
55916;BME280;41826;53.246;-6.670;2023-02-15T14:58:13;100585.84;;;10.06;100.00
55916;BME280;41826;53.246;-6.670;2023-02-15T15:00:40;100585.72;;;9.97;100.00
55916;BME280;41826;53.246;-6.670;2023-02-15T15:03:20;100577.44;;;9.92;100.00
55916;BME280;41826;53.246;-6.670;2023-02-15T15:05:50;100592.53;;;9.90;100.00
55916;BME280;41826;53.246;-6.670;2023-02-15T15:08:46;100607.97;;;9.93;100.00
55916;BME280;41826;53.246;-6.670;2023-02-15T15:13:59;100580.94;;;9.93;100.00
55916;BME280;41826;53.246;-6.670;2023-02-15T15:18:53;100585.19;;;9.94;100.00
55916;BME280;41826;53.246;-6.670;2023-02-15T15:21:51;100571.25;;;9.93;100.00
55916;BME280;41826;53.246;-6.670;2023-02-15T15:47:00;100580.44;;;9.70;100.00